createdAt,value
2017-09-08T02:47:29.200Z,16.68
2017-09-08T03:29:47.436Z,16.60
2017-09-08T03:57:24.072Z,16.36
2017-09-08T04:21:16.681Z,16.28
2017-09-08T04:24:25.775Z,16.10
2017-09-08T04:27:29.233Z,16.25
2017-09-08T04:40:46.241Z,16.26
2017-09-08T04:50:41.632Z,16.42
2017-09-08T05:00:01.777Z,16.27
2017-09-08T05:06:21.823Z,16.02
2017-09-08T05:18:14.768Z,16.06
2017-09-08T05:49:09.658Z,15.76
2017-09-08T05:51:58.957Z,15.93
2017-09-08T05:55:08.362Z,15.57
2017-09-08T05:58:32.350Z,15.27
2017-09-08T06:04:17.245Z,15.62
2017-09-08T06:09:46.025Z,15.70
2017-09-08T06:12:19.257Z,15.87
2017-09-08T06:15:08.438Z,16.34
2017-09-08T06:18:06.933Z,16.24
2017-09-08T06:27:47.953Z,16.13
2017-09-08T06:38:14.308Z,15.87
2017-09-08T06:41:12.293Z,16.28
2017-09-08T06:47:30.053Z,16.06
2017-09-08T06:50:09.313Z,16.38
2017-09-08T07:09:10.135Z,15.87
2017-09-08T07:11:58.483Z,15.96
2017-09-08T07:19:47.864Z,15.98
2017-09-08T07:39:24.817Z,16.41
2017-09-08T07:48:29.442Z,15.79
2017-09-08T07:56:30.745Z,16.81
2017-09-08T08:40:55.338Z,16.78
2017-09-08T10:23:01.242Z,16.59
2017-09-08T10:25:44.654Z,16.76
2017-09-08T10:52:31.508Z,16.70
2017-09-08T10:59:05.156Z,16.77
2017-09-08T11:02:30.157Z,16.24
2017-09-08T11:08:39.552Z,16.14
2017-09-08T11:14:14.750Z,16.59
2017-09-08T11:20:37.072Z,16.35
2017-09-08T11:28:32.385Z,16.14
2017-09-08T12:03:01.020Z,17.22
2017-09-08T12:05:58.294Z,17.45
2017-09-08T12:08:42.471Z,17.30
2017-09-08T12:18:42.679Z,18.04
2017-09-08T12:21:26.494Z,17.74
2017-09-08T12:24:32.360Z,17.53
2017-09-08T12:41:10.280Z,18.13
2017-09-08T12:54:33.532Z,17.98
2017-09-08T13:00:55.828Z,18.03
2017-09-08T13:07:02.349Z,18.05
2017-09-08T13:59:38.072Z,22.63
2017-09-08T14:02:08.074Z,21.19
2017-09-08T14:04:37.714Z,21.22
2017-09-08T14:07:11.662Z,20.56
2017-09-08T14:09:41.486Z,20.06
2017-09-08T14:14:42.492Z,18.74
2017-09-08T14:17:14.261Z,18.55
2017-09-08T14:19:45.276Z,18.10
2017-09-08T14:22:16.364Z,17.91
2017-09-08T14:24:47.756Z,17.77
2017-09-08T14:27:17.675Z,17.64
2017-09-08T14:29:47.058Z,17.60
2017-09-08T14:32:16.969Z,17.25
2017-09-08T14:34:47.553Z,17.27
2017-09-08T14:37:17.868Z,17.45
2017-09-08T14:39:47.268Z,17.05
2017-09-08T14:42:20.355Z,16.98
2017-09-08T14:44:50.256Z,17.24
2017-09-08T14:47:20.516Z,17.03
2017-09-08T14:49:49.904Z,16.68
2017-09-08T14:52:19.637Z,16.91
2017-09-08T14:54:49.533Z,16.97
2017-09-08T14:57:19.261Z,16.94
2017-09-08T14:59:49.567Z,16.85
2017-09-08T15:02:19.315Z,17.07
2017-09-08T15:04:48.820Z,17.04
2017-09-08T15:07:18.508Z,16.88
2017-09-08T15:09:50.207Z,16.70
2017-09-08T15:12:19.717Z,16.80
2017-09-08T15:14:49.449Z,16.87
2017-09-08T15:17:18.918Z,16.53
2017-09-08T15:19:48.667Z,16.55
2017-09-08T15:22:18.206Z,16.66
2017-09-08T15:24:47.703Z,16.59
2017-09-08T15:27:17.164Z,16.51
2017-09-08T15:29:48.200Z,16.56
2017-09-08T15:32:18.541Z,16.59
2017-09-08T15:34:49.127Z,16.46
2017-09-08T15:37:19.042Z,16.58
2017-09-08T15:39:50.641Z,16.62
2017-09-08T15:42:21.030Z,16.54
2017-09-08T15:44:50.465Z,16.49
2017-09-08T15:47:19.877Z,16.38
2017-09-08T15:49:49.577Z,16.68
2017-09-08T15:52:20.905Z,16.43
2017-09-08T15:54:50.473Z,16.67
2017-09-08T15:57:19.943Z,17.17
2017-09-08T15:59:49.561Z,17.04
2017-09-08T16:02:19.466Z,16.95
2017-09-08T16:04:49.821Z,17.10
2017-09-08T16:07:19.452Z,16.89
2017-09-08T16:09:49.188Z,16.96
2017-09-08T16:12:18.626Z,16.70
2017-09-08T16:14:48.023Z,16.54
2017-09-08T16:17:17.784Z,16.47
2017-09-08T16:19:47.521Z,16.71
2017-09-08T16:22:16.986Z,16.75
2017-09-08T16:24:46.566Z,17.01
2017-09-08T16:27:16.274Z,16.95
2017-09-08T16:29:47.237Z,16.79
2017-09-08T16:32:16.672Z,16.52
2017-09-08T16:34:46.195Z,16.59
2017-09-08T16:37:16.133Z,16.69
2017-09-08T16:39:45.966Z,16.60
2017-09-08T16:42:15.378Z,16.12
2017-09-08T16:44:44.849Z,16.54
2017-09-08T16:47:14.317Z,16.74
2017-09-08T16:49:44.056Z,16.51
2017-09-08T16:52:15.434Z,16.64
2017-09-08T16:54:45.028Z,16.75
2017-09-08T16:57:14.624Z,17.00
2017-09-08T16:59:44.242Z,17.02
2017-09-08T17:02:13.918Z,16.86
2017-09-08T17:04:43.397Z,16.90
2017-09-08T17:07:12.896Z,16.96
2017-09-08T17:09:42.923Z,17.08
2017-09-08T17:12:12.464Z,17.14
2017-09-08T17:14:42.675Z,16.79
2017-09-08T17:17:12.065Z,16.77
2017-09-08T17:19:41.449Z,16.96
2017-09-08T17:22:10.869Z,17.33
2017-09-08T17:24:40.617Z,17.11
2017-09-08T17:27:10.366Z,16.99
2017-09-08T17:29:39.882Z,16.51
2017-09-08T17:32:09.320Z,16.48
2017-09-08T17:34:38.846Z,16.59
2017-09-08T17:37:09.560Z,16.88
2017-09-08T17:39:38.972Z,17.28
2017-09-08T17:44:41.765Z,16.64
2017-09-08T17:47:11.223Z,16.72
2017-09-08T17:49:41.128Z,16.72
2017-09-08T17:52:10.517Z,16.57
2017-09-08T17:54:39.898Z,16.58
2017-09-08T17:57:09.432Z,16.15
2017-09-08T17:59:40.907Z,16.62
2017-09-08T18:02:10.445Z,16.76
2017-09-08T18:04:40.341Z,16.50
2017-09-08T18:07:10.121Z,16.79
2017-09-08T18:09:40.473Z,16.43
2017-09-08T18:12:10.282Z,16.65
2017-09-08T18:14:40.146Z,16.93
2017-09-08T18:17:10.098Z,16.51
2017-09-08T18:19:39.580Z,16.69
2017-09-08T18:22:09.552Z,16.85
2017-09-08T18:24:39.063Z,16.71
2017-09-08T18:27:09.225Z,17.01
2017-09-08T18:29:38.898Z,17.11
2017-09-08T18:32:08.589Z,17.12
2017-09-08T18:34:38.168Z,17.28
2017-09-08T18:37:08.529Z,17.51
2017-09-08T18:39:40.719Z,16.45
2017-09-08T18:42:10.558Z,16.69
2017-09-08T18:44:40.470Z,16.82
2017-09-08T18:47:10.068Z,17.10
2017-09-08T18:49:41.380Z,16.91
2017-09-08T18:52:11.319Z,16.69
2017-09-08T18:54:42.651Z,17.20
2017-09-08T18:57:25.302Z,17.08
2017-09-08T19:08:06.162Z,16.83
2017-09-08T19:10:35.653Z,16.24
2017-09-08T19:13:06.888Z,16.00
2017-09-08T19:15:37.335Z,16.46
2017-09-08T19:18:08.418Z,16.49
2017-09-08T19:20:38.236Z,16.79
2017-09-08T19:23:10.176Z,16.82
2017-09-08T19:25:39.669Z,16.74
2017-09-08T19:28:09.273Z,16.96
2017-09-08T19:30:38.842Z,16.53
2017-09-08T19:33:08.734Z,16.48
2017-09-08T19:35:38.104Z,16.30
2017-09-08T19:38:08.060Z,16.41
2017-09-08T19:40:37.800Z,16.41
2017-09-08T19:43:08.509Z,16.51
2017-09-08T19:45:37.905Z,16.42
2017-09-08T19:48:08.361Z,16.54
2017-09-08T19:50:37.837Z,17.01
2017-09-08T19:53:07.714Z,16.86
2017-09-08T19:55:37.221Z,16.69
2017-09-08T19:58:07.105Z,16.78
2017-09-08T20:00:36.527Z,16.95
2017-09-08T20:03:10.024Z,16.80
2017-09-08T20:05:39.545Z,16.86
2017-09-08T20:08:09.081Z,16.78
2017-09-08T20:10:38.465Z,16.48
2017-09-08T20:13:09.132Z,16.56
2017-09-08T20:15:39.014Z,16.37
2017-09-08T20:18:08.740Z,17.04
2017-09-08T20:20:38.250Z,17.05
2017-09-08T20:23:07.781Z,17.14
2017-09-08T20:25:37.460Z,16.88
2017-09-08T20:28:09.234Z,16.73
2017-09-08T20:30:42.600Z,16.65
2017-09-08T20:33:13.088Z,16.30
2017-09-08T20:35:43.354Z,16.74
2017-09-08T20:38:14.339Z,16.90
2017-09-08T20:40:44.321Z,17.11
2017-09-08T20:43:13.702Z,17.15
2017-09-08T20:45:44.127Z,17.25
2017-09-08T20:48:14.093Z,16.83
2017-09-08T20:50:43.917Z,17.11
2017-09-08T20:53:13.377Z,16.94
2017-09-08T20:55:43.317Z,16.94
2017-09-08T20:58:13.029Z,16.93
2017-09-08T21:00:44.418Z,16.98
2017-09-08T21:03:15.005Z,17.21
2017-09-08T21:05:45.621Z,16.64
2017-09-08T21:08:15.197Z,16.63
2017-09-08T21:10:45.846Z,16.67
2017-09-08T21:13:15.266Z,16.65
2017-09-08T21:15:44.718Z,16.76
2017-09-08T21:18:14.232Z,16.29
2017-09-08T21:20:44.212Z,16.24
2017-09-08T21:23:14.541Z,16.22
2017-09-08T21:25:44.373Z,16.29
2017-09-08T21:28:16.230Z,16.03
2017-09-08T21:30:46.174Z,16.25
2017-09-08T21:33:17.681Z,16.39
2017-09-08T21:35:47.697Z,16.50
2017-09-08T21:38:17.161Z,16.39
2017-09-08T21:40:47.320Z,16.48
2017-09-08T21:43:17.065Z,16.49
2017-09-08T21:45:46.529Z,16.48
2017-09-08T21:48:16.408Z,16.71
2017-09-08T21:50:46.365Z,16.61
2017-09-08T21:53:16.058Z,16.12
2017-09-08T21:55:47.272Z,16.51
2017-09-08T21:58:17.717Z,16.40
2017-09-08T22:00:47.353Z,16.40
2017-09-08T22:03:17.012Z,16.15
2017-09-08T22:05:46.390Z,16.13
2017-09-08T22:08:15.784Z,16.20
2017-09-08T22:10:45.856Z,16.43
2017-09-08T22:13:15.569Z,16.19
2017-09-08T22:15:44.948Z,16.24
2017-09-08T22:18:14.333Z,16.40
2017-09-08T22:20:43.773Z,16.32
2017-09-08T22:23:13.562Z,16.70
2017-09-08T22:25:43.337Z,16.43
2017-09-08T22:28:13.037Z,16.50
2017-09-08T22:30:43.436Z,16.42
2017-09-08T22:33:13.405Z,16.48
2017-09-08T22:35:42.812Z,16.72
2017-09-08T22:38:12.682Z,16.79
2017-09-08T22:40:42.365Z,17.16
2017-09-08T22:43:11.811Z,17.21
2017-09-08T22:45:42.222Z,17.08
2017-09-08T22:48:12.749Z,17.15
2017-09-08T22:50:43.037Z,16.27
2017-09-08T22:53:12.561Z,16.33
2017-09-08T22:55:44.026Z,16.06
2017-09-08T22:58:13.521Z,16.15
2017-09-08T23:00:43.041Z,16.20
2017-09-08T23:03:12.855Z,16.29
2017-09-08T23:05:42.317Z,16.48
2017-09-08T23:08:11.936Z,16.54
2017-09-08T23:10:41.797Z,16.39
2017-09-08T23:13:11.157Z,16.57
2017-09-08T23:15:40.593Z,16.26
2017-09-08T23:18:10.713Z,16.69
2017-09-08T23:20:40.125Z,16.49
2017-09-08T23:23:09.621Z,16.68
2017-09-08T23:25:39.220Z,16.46
2017-09-08T23:28:08.612Z,16.42
2017-09-08T23:30:38.025Z,16.31
2017-09-08T23:33:07.411Z,16.71
2017-09-08T23:35:36.914Z,16.41
2017-09-08T23:38:08.225Z,16.52
2017-09-08T23:40:37.608Z,16.71
2017-09-08T23:43:07.173Z,16.62
2017-09-08T23:45:38.048Z,16.16
2017-09-08T23:48:07.600Z,16.17
2017-09-08T23:50:36.998Z,16.46
2017-09-08T23:53:06.580Z,16.33
2017-09-08T23:55:35.946Z,16.32
2017-09-08T23:58:05.462Z,16.07
